createdAt,value
2022-11-03T00:00:16.031Z,0
2022-11-03T00:01:16.092Z,0
2022-11-03T00:02:16.137Z,0
2022-11-03T00:03:15.994Z,0
2022-11-03T00:04:16.017Z,0
2022-11-03T00:05:16.008Z,0
2022-11-03T00:06:16.005Z,0
2022-11-03T00:07:16.012Z,0
2022-11-03T00:08:16.015Z,0
2022-11-03T00:09:16.014Z,0
2022-11-03T00:10:16.018Z,0
2022-11-03T00:11:16.014Z,0
2022-11-03T00:12:16.018Z,0
2022-11-03T00:13:16.021Z,0
2022-11-03T00:14:16.020Z,0
2022-11-03T00:15:16.013Z,1.7000000000000002
2022-11-03T00:16:16.038Z,3.4000000000000004
2022-11-03T00:17:16.021Z,3.9000000000000004
2022-11-03T00:18:16.025Z,3.4000000000000004
2022-11-03T00:19:16.017Z,3.7
2022-11-03T00:20:16.029Z,2.6
2022-11-03T00:21:16.033Z,2.2
2022-11-03T00:22:16.026Z,2.9000000000000004
2022-11-03T00:23:16.030Z,0
2022-11-03T00:24:16.042Z,0
2022-11-03T00:25:16.026Z,0
2022-11-03T00:26:16.025Z,0
2022-11-03T00:27:16.029Z,0
2022-11-03T00:28:16.057Z,0
2022-11-03T00:29:16.032Z,0
2022-11-03T00:30:16.034Z,0
2022-11-03T00:31:16.034Z,0
2022-11-03T00:32:16.059Z,0
2022-11-03T00:33:16.037Z,0
2022-11-03T00:34:16.035Z,0
2022-11-03T00:35:16.029Z,0
2022-11-03T00:36:16.040Z,0
2022-11-03T00:37:16.043Z,0
2022-11-03T00:38:16.047Z,0
2022-11-03T00:39:16.046Z,0
2022-11-03T00:40:16.048Z,0
2022-11-03T00:41:16.063Z,0
2022-11-03T00:42:16.051Z,0
2022-11-03T00:43:16.048Z,0
2022-11-03T00:44:16.052Z,0
2022-11-03T00:45:16.041Z,0
2022-11-03T00:46:16.046Z,0
2022-11-03T00:47:17.823Z,0
2022-11-03T00:48:16.074Z,0
2022-11-03T00:49:16.068Z,0
2022-11-03T00:50:16.043Z,0
2022-11-03T00:51:16.046Z,0
2022-11-03T00:52:16.055Z,0
2022-11-03T00:53:16.052Z,0
2022-11-03T00:54:16.048Z,0
2022-11-03T00:55:16.061Z,0
2022-11-03T00:56:16.063Z,0
2022-11-03T00:57:16.058Z,0
2022-11-03T00:58:16.062Z,0
2022-11-03T00:59:16.062Z,0
2022-11-03T01:00:16.092Z,0
2022-11-03T01:01:16.135Z,0
2022-11-03T01:02:16.123Z,0
2022-11-03T01:03:16.074Z,0
2022-11-03T01:04:16.083Z,0
2022-11-03T01:05:16.077Z,0
2022-11-03T01:06:16.080Z,0
2022-11-03T01:07:16.072Z,0
2022-11-03T01:08:16.069Z,0
2022-11-03T01:09:16.071Z,0
2022-11-03T01:10:16.080Z,0
2022-11-03T01:11:16.075Z,0
2022-11-03T01:12:16.074Z,0
2022-11-03T01:13:16.080Z,0
2022-11-03T01:14:16.083Z,0
2022-11-03T01:15:16.072Z,0
2022-11-03T01:16:16.081Z,0
2022-11-03T01:17:16.087Z,0
2022-11-03T01:18:16.068Z,0
2022-11-03T01:19:16.082Z,0
2022-11-03T01:20:16.097Z,0
2022-11-03T01:21:16.081Z,0
2022-11-03T01:22:16.084Z,0
2022-11-03T01:23:16.082Z,0
2022-11-03T01:24:16.088Z,0
2022-11-03T01:25:16.095Z,0
2022-11-03T01:26:16.076Z,0
2022-11-03T01:27:16.090Z,0
2022-11-03T01:28:16.085Z,0
2022-11-03T01:29:16.084Z,0
2022-11-03T01:30:16.104Z,0
2022-11-03T01:31:16.089Z,0
2022-11-03T01:32:16.083Z,0
2022-11-03T01:33:16.089Z,0
2022-11-03T01:34:16.091Z,0
2022-11-03T01:35:16.087Z,0
2022-11-03T01:36:16.111Z,0
2022-11-03T01:37:16.089Z,0
2022-11-03T01:38:16.094Z,0
2022-11-03T01:39:16.090Z,0
2022-11-03T01:40:16.095Z,0
2022-11-03T01:41:16.094Z,0
2022-11-03T01:42:16.102Z,0
2022-11-03T01:43:16.096Z,0
2022-11-03T01:44:16.093Z,0
2022-11-03T01:45:16.087Z,0
2022-11-03T01:46:16.108Z,0
2022-11-03T01:47:16.101Z,0
2022-11-03T01:48:16.095Z,0
2022-11-03T01:49:16.097Z,0
2022-11-03T01:50:16.101Z,0
2022-11-03T01:51:16.107Z,0
2022-11-03T01:52:16.116Z,0
2022-11-03T01:53:16.102Z,0
2022-11-03T01:54:16.094Z,0
2022-11-03T01:55:16.105Z,0
2022-11-03T01:56:16.093Z,0
2022-11-03T01:57:16.103Z,0
2022-11-03T01:58:16.109Z,0
2022-11-03T01:59:16.102Z,0
2022-11-03T02:00:16.103Z,0
2022-11-03T02:01:16.188Z,0
2022-11-03T02:02:16.191Z,0
2022-11-03T02:03:16.108Z,0
2022-11-03T02:04:16.104Z,0
2022-11-03T02:05:16.097Z,0
2022-11-03T02:06:16.106Z,0
2022-11-03T02:07:16.101Z,0
2022-11-03T02:08:16.136Z,0
2022-11-03T02:09:16.116Z,0
2022-11-03T02:10:16.102Z,0
2022-11-03T02:11:16.100Z,0
2022-11-03T02:12:16.107Z,0
2022-11-03T02:13:16.105Z,0
2022-11-03T02:14:16.105Z,0
2022-11-03T02:15:16.103Z,0
2022-11-03T02:16:16.104Z,0
2022-11-03T02:17:16.110Z,0
2022-11-03T02:18:16.096Z,0
2022-11-03T02:19:16.105Z,0
2022-11-03T02:20:16.114Z,0
2022-11-03T02:21:16.111Z,0
2022-11-03T02:22:16.109Z,0
2022-11-03T02:23:16.113Z,0
2022-11-03T02:24:16.131Z,0
2022-11-03T02:25:16.112Z,0
2022-11-03T02:26:16.111Z,0
2022-11-03T02:27:16.113Z,0
2022-11-03T02:28:16.119Z,0
2022-11-03T02:29:16.112Z,0
2022-11-03T02:30:16.117Z,0
2022-11-03T02:31:16.119Z,0
2022-11-03T02:32:16.114Z,0
2022-11-03T02:33:16.122Z,0
2022-11-03T02:34:16.128Z,0
2022-11-03T02:35:16.119Z,0
2022-11-03T02:36:16.127Z,0
2022-11-03T02:37:16.129Z,0
2022-11-03T02:38:16.139Z,0
2022-11-03T02:39:16.127Z,0
2022-11-03T02:40:16.176Z,0
2022-11-03T02:41:16.139Z,0
2022-11-03T02:42:16.124Z,0
2022-11-03T02:43:16.131Z,0
2022-11-03T02:44:16.128Z,0
2022-11-03T02:45:17.266Z,0
2022-11-03T02:46:16.140Z,0
2022-11-03T02:47:16.134Z,0
2022-11-03T02:48:16.148Z,0
2022-11-03T02:49:16.137Z,0
2022-11-03T02:50:16.149Z,0
2022-11-03T02:51:16.151Z,0
2022-11-03T02:52:16.145Z,0
2022-11-03T02:53:16.144Z,0
2022-11-03T02:54:16.140Z,0
2022-11-03T02:55:16.147Z,0
2022-11-03T02:56:16.163Z,0
2022-11-03T02:57:16.147Z,0
2022-11-03T02:58:16.138Z,0
2022-11-03T02:59:16.149Z,0
2022-11-03T03:00:16.161Z,0
2022-11-03T03:01:16.271Z,0
2022-11-03T03:02:16.238Z,0
2022-11-03T03:03:16.149Z,0
2022-11-03T03:04:16.161Z,0
2022-11-03T03:05:16.158Z,0
2022-11-03T03:06:16.161Z,0
2022-11-03T03:07:16.166Z,0
2022-11-03T03:08:16.170Z,0
2022-11-03T03:09:16.162Z,0
2022-11-03T03:10:16.179Z,0
2022-11-03T03:11:16.177Z,0
2022-11-03T03:12:16.195Z,0
2022-11-03T03:13:16.170Z,0
2022-11-03T03:14:16.175Z,0
2022-11-03T03:15:16.177Z,0
2022-11-03T03:16:16.176Z,0
2022-11-03T03:17:16.179Z,0
2022-11-03T03:18:16.192Z,0
2022-11-03T03:19:16.172Z,0
2022-11-03T03:20:16.179Z,0
2022-11-03T03:21:16.185Z,0
2022-11-03T03:22:16.176Z,0
2022-11-03T03:23:16.420Z,0
2022-11-03T03:24:16.195Z,0
2022-11-03T03:25:16.183Z,0
2022-11-03T03:26:16.196Z,0
2022-11-03T03:27:16.201Z,0
2022-11-03T03:28:16.211Z,0
2022-11-03T03:29:16.194Z,0
2022-11-03T03:30:16.192Z,0
2022-11-03T03:31:16.199Z,0
2022-11-03T03:32:16.204Z,0
2022-11-03T03:33:16.292Z,0
2022-11-03T03:34:33.729Z,0
2022-11-03T03:35:16.207Z,0
2022-11-03T03:36:16.207Z,0
2022-11-03T03:37:16.207Z,0
2022-11-03T03:38:16.221Z,0
2022-11-03T03:39:16.207Z,0
2022-11-03T03:40:16.208Z,0
2022-11-03T03:41:16.210Z,0
2022-11-03T03:42:16.210Z,0
2022-11-03T03:43:16.209Z,0
2022-11-03T03:44:16.234Z,0
2022-11-03T03:45:16.207Z,0
2022-11-03T03:46:16.217Z,0
2022-11-03T03:47:16.211Z,0
2022-11-03T03:48:16.223Z,0
2022-11-03T03:49:16.216Z,0
2022-11-03T03:50:16.216Z,0
2022-11-03T03:51:16.221Z,0
2022-11-03T03:52:16.221Z,0
2022-11-03T03:53:16.224Z,0
2022-11-03T03:54:16.228Z,0
2022-11-03T03:55:16.278Z,0
2022-11-03T03:56:16.225Z,0
2022-11-03T03:57:16.236Z,0
2022-11-03T03:58:16.264Z,0
2022-11-03T03:59:16.227Z,0
2022-11-03T04:00:16.285Z,0
2022-11-03T04:01:16.349Z,0
2022-11-03T04:02:16.397Z,0
2022-11-03T04:03:16.243Z,0
2022-11-03T04:04:16.245Z,0
2022-11-03T04:05:16.243Z,0
2022-11-03T04:06:16.256Z,0
2022-11-03T04:07:16.238Z,0
2022-11-03T04:08:16.250Z,0
2022-11-03T04:09:16.253Z,0
2022-11-03T04:10:16.248Z,0
2022-11-03T04:11:16.263Z,0
2022-11-03T04:12:16.249Z,0
2022-11-03T04:13:16.255Z,0
2022-11-03T04:14:16.252Z,0
2022-11-03T04:15:16.267Z,0
2022-11-03T04:16:16.276Z,0
2022-11-03T04:17:16.259Z,0
2022-11-03T04:18:16.260Z,0
2022-11-03T04:19:16.260Z,0
2022-11-03T04:20:16.263Z,0
2022-11-03T04:21:16.261Z,0
2022-11-03T04:22:16.259Z,0
2022-11-03T04:23:16.272Z,0
2022-11-03T04:24:16.272Z,0
2022-11-03T04:25:16.268Z,0
2022-11-03T04:26:16.275Z,0
2022-11-03T04:27:16.276Z,0
2022-11-03T04:28:16.275Z,0
2022-11-03T04:29:16.276Z,0
2022-11-03T04:30:16.290Z,0
2022-11-03T04:31:16.282Z,0
2022-11-03T04:32:16.307Z,0
2022-11-03T04:33:16.272Z,0
2022-11-03T04:34:16.279Z,0
2022-11-03T04:35:16.277Z,0
2022-11-03T04:36:16.289Z,0
2022-11-03T04:37:16.297Z,0
2022-11-03T04:38:16.298Z,0
2022-11-03T04:39:16.289Z,0
2022-11-03T04:40:16.282Z,0
2022-11-03T04:41:16.306Z,0
2022-11-03T04:42:16.282Z,0
2022-11-03T04:43:16.288Z,0
2022-11-03T04:44:16.294Z,0
2022-11-03T04:45:16.291Z,0
2022-11-03T04:46:16.292Z,0
2022-11-03T04:47:16.292Z,0
2022-11-03T04:48:16.314Z,0
2022-11-03T04:49:16.299Z,0
2022-11-03T04:50:16.293Z,0
2022-11-03T04:51:16.300Z,0
2022-11-03T04:52:16.299Z,0
2022-11-03T04:53:16.296Z,0
2022-11-03T04:54:16.306Z,0
2022-11-03T04:55:16.301Z,0
2022-11-03T04:56:16.311Z,0
2022-11-03T04:57:16.311Z,0
2022-11-03T04:58:16.300Z,0
2022-11-03T04:59:16.314Z,0
2022-11-03T05:00:16.324Z,0
2022-11-03T05:01:19.562Z,0
2022-11-03T05:02:16.319Z,0
2022-11-03T05:03:16.321Z,0
2022-11-03T05:04:16.347Z,0
2022-11-03T05:05:16.317Z,0
2022-11-03T05:06:16.322Z,0
2022-11-03T05:07:16.315Z,0
2022-11-03T05:08:16.312Z,0
2022-11-03T05:09:16.320Z,0
2022-11-03T05:10:16.328Z,0
2022-11-03T05:11:16.322Z,0
2022-11-03T05:12:16.313Z,0
2022-11-03T05:13:16.322Z,0
2022-11-03T05:14:16.330Z,0
2022-11-03T05:15:16.325Z,0
2022-11-03T05:16:16.338Z,0
2022-11-03T05:17:16.319Z,0
2022-11-03T05:18:16.347Z,0
2022-11-03T05:19:16.343Z,0
2022-11-03T05:20:16.357Z,0
2022-11-03T05:21:16.336Z,0
2022-11-03T05:22:16.342Z,0
2022-11-03T05:23:16.344Z,0
2022-11-03T05:24:16.393Z,0
2022-11-03T05:25:16.341Z,0
2022-11-03T05:26:16.348Z,0
2022-11-03T05:27:16.342Z,0
2022-11-03T05:28:16.338Z,0
2022-11-03T05:29:16.338Z,0
2022-11-03T05:30:16.351Z,0
2022-11-03T05:31:16.353Z,0
2022-11-03T05:32:16.349Z,0
2022-11-03T05:33:16.345Z,0
2022-11-03T05:34:16.347Z,0
2022-11-03T05:35:16.347Z,0
2022-11-03T05:36:16.379Z,0
2022-11-03T05:37:16.351Z,0
2022-11-03T05:38:16.355Z,0
2022-11-03T05:39:16.350Z,0
2022-11-03T05:40:16.354Z,0
2022-11-03T05:41:16.370Z,0
2022-11-03T05:42:16.360Z,0
2022-11-03T05:43:16.363Z,0
2022-11-03T05:44:16.356Z,0
2022-11-03T05:45:16.368Z,0
2022-11-03T05:46:16.370Z,0
2022-11-03T05:47:16.374Z,0
2022-11-03T05:48:16.369Z,0
2022-11-03T05:49:16.369Z,0
2022-11-03T05:50:16.379Z,0
2022-11-03T05:51:16.368Z,0
2022-11-03T05:52:16.379Z,0
2022-11-03T05:53:16.368Z,0
2022-11-03T05:54:18.518Z,0
2022-11-03T05:55:16.370Z,0
2022-11-03T05:56:16.365Z,0
2022-11-03T05:57:16.377Z,0
2022-11-03T05:58:16.387Z,0
2022-11-03T05:59:16.371Z,0
2022-11-03T06:00:16.382Z,0
2022-11-03T06:01:16.425Z,0
2022-11-03T06:02:16.490Z,0
2022-11-03T06:03:16.382Z,0
2022-11-03T06:04:16.379Z,0
2022-11-03T06:05:16.384Z,0
2022-11-03T06:06:16.380Z,0
2022-11-03T06:07:16.395Z,0
2022-11-03T06:08:16.444Z,0
2022-11-03T06:09:16.391Z,0
2022-11-03T06:10:16.383Z,0
2022-11-03T06:11:16.391Z,0
2022-11-03T06:12:16.391Z,0
2022-11-03T06:13:16.395Z,0
2022-11-03T06:14:18.657Z,0
2022-11-03T06:15:16.385Z,0
2022-11-03T06:16:16.391Z,0
2022-11-03T06:17:16.393Z,0
2022-11-03T06:18:16.404Z,0
2022-11-03T06:19:16.395Z,0
2022-11-03T06:20:16.410Z,0
2022-11-03T06:21:16.398Z,0
2022-11-03T06:22:16.392Z,0
2022-11-03T06:23:16.402Z,0
2022-11-03T06:24:16.423Z,0
2022-11-03T06:25:16.413Z,0
2022-11-03T06:26:16.400Z,0
2022-11-03T06:27:16.403Z,0
2022-11-03T06:28:16.403Z,0
2022-11-03T06:29:16.406Z,0
2022-11-03T06:30:16.408Z,0
2022-11-03T06:31:17.680Z,0
2022-11-03T06:32:16.407Z,0
2022-11-03T06:33:16.408Z,0
2022-11-03T06:34:16.412Z,0
2022-11-03T06:35:16.412Z,0
2022-11-03T06:36:16.406Z,0
2022-11-03T06:37:16.409Z,0
2022-11-03T06:38:16.417Z,0
2022-11-03T06:39:16.417Z,0
2022-11-03T06:40:16.436Z,0
2022-11-03T06:41:16.416Z,0
2022-11-03T06:42:16.416Z,0
2022-11-03T06:43:16.406Z,0
2022-11-03T06:44:16.412Z,0
2022-11-03T06:45:16.415Z,0
2022-11-03T06:46:16.419Z,0
2022-11-03T06:47:16.416Z,0
2022-11-03T06:48:16.431Z,0
2022-11-03T06:49:16.424Z,0
2022-11-03T06:50:16.425Z,0
2022-11-03T06:51:16.427Z,0
2022-11-03T06:52:16.434Z,0
2022-11-03T06:53:16.424Z,0
2022-11-03T06:54:16.428Z,0
2022-11-03T06:55:16.991Z,0
2022-11-03T06:56:16.452Z,0
2022-11-03T06:57:16.433Z,0
2022-11-03T06:58:16.429Z,0
2022-11-03T06:59:16.424Z,0
2022-11-03T07:00:42.880Z,0
2022-11-03T07:01:16.613Z,0
2022-11-03T07:02:16.493Z,0
2022-11-03T07:03:16.437Z,0
2022-11-03T07:04:16.432Z,0
2022-11-03T07:05:16.433Z,0
2022-11-03T07:06:16.435Z,0
2022-11-03T07:07:16.452Z,0
2022-11-03T07:08:16.430Z,0
2022-11-03T07:09:16.431Z,0
2022-11-03T07:10:16.432Z,0
2022-11-03T07:11:16.431Z,0
2022-11-03T07:12:16.461Z,0
2022-11-03T07:13:16.432Z,0
2022-11-03T07:14:16.432Z,0
2022-11-03T07:15:16.445Z,0
2022-11-03T07:16:17.850Z,0
2022-11-03T07:17:16.443Z,0
2022-11-03T07:18:16.438Z,0
2022-11-03T07:19:16.442Z,0
2022-11-03T07:20:16.437Z,0
2022-11-03T07:21:16.445Z,0
2022-11-03T07:22:16.442Z,0
2022-11-03T07:23:16.438Z,0
2022-11-03T07:24:16.439Z,0
2022-11-03T07:25:16.434Z,0
2022-11-03T07:26:16.445Z,0
2022-11-03T07:27:16.436Z,0
2022-11-03T07:28:16.458Z,0
2022-11-03T07:29:16.437Z,0
2022-11-03T07:30:16.440Z,0
2022-11-03T07:31:16.787Z,0
2022-11-03T07:32:16.450Z,0
2022-11-03T07:33:16.437Z,0
2022-11-03T07:34:16.441Z,0
2022-11-03T07:35:16.440Z,0
2022-11-03T07:36:17.012Z,0
2022-11-03T07:37:16.458Z,0
2022-11-03T07:38:16.445Z,0
2022-11-03T07:39:16.460Z,0
2022-11-03T07:40:16.439Z,0
2022-11-03T07:41:16.446Z,0
2022-11-03T07:42:16.439Z,0
2022-11-03T07:43:16.437Z,0
2022-11-03T07:44:16.470Z,5.5
2022-11-03T07:45:16.447Z,3.7
2022-11-03T07:46:16.443Z,1.1
2022-11-03T07:47:16.446Z,2.2
2022-11-03T07:48:16.436Z,2.3000000000000003
2022-11-03T07:49:16.447Z,3.9000000000000004
2022-11-03T07:50:16.445Z,5.6000000000000005
2022-11-03T07:51:16.462Z,5.5
2022-11-03T07:52:16.460Z,4.6000000000000005
2022-11-03T07:53:16.459Z,5.7
2022-11-03T07:54:16.462Z,4.5
2022-11-03T07:55:16.450Z,0
2022-11-03T07:56:16.556Z,2.6
2022-11-03T07:57:16.456Z,4.7
2022-11-03T07:58:16.465Z,3
2022-11-03T07:59:16.575Z,2.7
2022-11-03T08:00:16.491Z,1.7000000000000002
2022-11-03T08:01:16.524Z,0
2022-11-03T08:02:16.535Z,0
2022-11-03T08:03:16.467Z,0
2022-11-03T08:04:16.467Z,0
2022-11-03T08:05:16.628Z,3.1
2022-11-03T08:06:18.770Z,3.4000000000000004
2022-11-03T08:07:16.480Z,3.6
2022-11-03T08:08:16.475Z,5.300000000000001
2022-11-03T08:09:16.480Z,0
2022-11-03T08:10:16.478Z,0
2022-11-03T08:11:16.522Z,0
2022-11-03T08:12:16.487Z,0
2022-11-03T08:13:16.484Z,4.9
2022-11-03T08:14:16.480Z,2.4000000000000004
2022-11-03T08:15:16.491Z,0
2022-11-03T08:16:16.534Z,0
2022-11-03T08:17:16.488Z,0
2022-11-03T08:18:16.495Z,0
2022-11-03T08:19:16.497Z,0
2022-11-03T08:20:16.495Z,0
2022-11-03T08:21:16.514Z,0
2022-11-03T08:22:16.493Z,0
2022-11-03T08:23:32.181Z,3.3000000000000003
2022-11-03T08:24:16.489Z,4.4
2022-11-03T08:25:16.490Z,4.800000000000001
2022-11-03T08:26:16.497Z,0
2022-11-03T08:27:16.503Z,0
2022-11-03T08:28:16.500Z,0
2022-11-03T08:29:16.499Z,0
2022-11-03T08:30:16.500Z,0
2022-11-03T08:31:16.505Z,0
2022-11-03T08:32:16.537Z,0
2022-11-03T08:33:16.524Z,0
2022-11-03T08:34:16.501Z,0
2022-11-03T08:35:16.501Z,0
2022-11-03T08:36:16.518Z,0
2022-11-03T08:37:16.512Z,0
2022-11-03T08:38:16.519Z,0
2022-11-03T08:39:16.529Z,0
2022-11-03T08:40:16.516Z,0
2022-11-03T08:41:16.518Z,0
2022-11-03T08:42:16.514Z,5.5
2022-11-03T08:43:16.531Z,2.8000000000000003
2022-11-03T08:44:16.528Z,0
2022-11-03T08:45:16.530Z,0
2022-11-03T08:46:17.927Z,0
2022-11-03T08:47:16.520Z,0
2022-11-03T08:48:16.541Z,4.800000000000001
2022-11-03T08:49:16.532Z,2.7
2022-11-03T08:50:16.528Z,0
2022-11-03T08:51:16.524Z,2.1
2022-11-03T08:52:16.549Z,0
2022-11-03T08:53:16.537Z,4.5
2022-11-03T08:54:16.527Z,3.2
2022-11-03T08:55:16.533Z,3.6
2022-11-03T08:56:19.204Z,3.5
2022-11-03T08:57:16.540Z,0
2022-11-03T08:58:16.534Z,7.9
2022-11-03T08:59:16.539Z,3.4000000000000004
2022-11-03T09:00:16.552Z,2.3000000000000003
2022-11-03T09:01:16.635Z,6.5
2022-11-03T09:02:16.698Z,3
2022-11-03T09:03:16.672Z,1.8
2022-11-03T09:04:16.573Z,6.2
2022-11-03T09:05:16.538Z,3.2
2022-11-03T09:06:16.603Z,1.8
2022-11-03T09:07:16.557Z,0
2022-11-03T09:11:16.543Z,0
2022-11-03T09:12:16.552Z,0
2022-11-03T09:13:16.548Z,0
2022-11-03T09:14:16.545Z,0
2022-11-03T09:15:16.552Z,0
2022-11-03T09:16:16.621Z,0
2022-11-03T09:17:16.557Z,0
2022-11-03T09:18:16.558Z,0
2022-11-03T09:19:16.550Z,0
2022-11-03T09:20:16.570Z,0
2022-11-03T09:21:16.562Z,0
2022-11-03T09:22:16.559Z,0
2022-11-03T09:23:16.557Z,0
2022-11-03T09:24:16.556Z,0
2022-11-03T09:25:16.561Z,0
2022-11-03T09:26:16.673Z,0
2022-11-03T09:27:16.568Z,0
2022-11-03T09:28:16.558Z,0
2022-11-03T09:29:16.564Z,0
2022-11-03T09:30:16.570Z,0
2022-11-03T09:31:16.575Z,0
2022-11-03T09:32:20.349Z,0
2022-11-03T09:33:16.587Z,0
2022-11-03T09:34:16.574Z,0
2022-11-03T09:35:16.578Z,0
2022-11-03T09:36:16.632Z,0
2022-11-03T09:37:16.567Z,2.1
2022-11-03T09:38:16.569Z,0.8
2022-11-03T09:39:16.581Z,0
2022-11-03T09:40:16.582Z,3.8000000000000003
2022-11-03T09:41:24.530Z,0
2022-11-03T09:42:16.575Z,0
2022-11-03T09:43:16.594Z,2.1
2022-11-03T09:44:16.581Z,0.9
2022-11-03T09:45:16.589Z,0
2022-11-03T09:46:16.582Z,0
2022-11-03T09:47:16.595Z,0
2022-11-03T09:48:16.573Z,1.3
2022-11-03T09:49:16.598Z,6.1000000000000005
2022-11-03T09:50:16.616Z,2.7
2022-11-03T09:51:16.585Z,0
2022-11-03T09:52:16.618Z,4.800000000000001
2022-11-03T09:53:16.591Z,5.1000000000000005
2022-11-03T09:54:16.587Z,4.1000000000000005
2022-11-03T09:55:16.599Z,0
2022-11-03T09:56:16.593Z,0
2022-11-03T09:57:16.603Z,0
2022-11-03T09:58:16.593Z,0
2022-11-03T09:59:16.589Z,2.1
2022-11-03T10:00:16.598Z,2.2
2022-11-03T10:01:16.664Z,1.7000000000000002
2022-11-03T10:02:16.657Z,0
2022-11-03T10:03:16.600Z,0.8
2022-11-03T10:04:16.607Z,0
2022-11-03T10:06:16.627Z,0
2022-11-03T10:07:16.606Z,0
2022-11-03T10:08:18.317Z,0
2022-11-03T10:09:16.598Z,0
2022-11-03T10:10:16.594Z,0
2022-11-03T10:11:16.596Z,0
2022-11-03T10:12:16.606Z,0
2022-11-03T10:13:16.599Z,0
2022-11-03T10:14:16.608Z,0
2022-11-03T10:15:16.599Z,0
2022-11-03T10:16:16.599Z,2.4000000000000004
2022-11-03T10:17:16.598Z,1.8
2022-11-03T10:18:16.611Z,2.5
2022-11-03T10:19:16.594Z,3.7
2022-11-03T10:20:16.605Z,4.4
2022-11-03T10:21:16.612Z,6.2
2022-11-03T10:22:16.618Z,5.4
2022-11-03T10:23:16.614Z,6.2
2022-11-03T10:24:16.623Z,4.9
2022-11-03T10:25:16.621Z,1.9000000000000001
2022-11-03T10:26:16.610Z,2.2
2022-11-03T10:27:16.611Z,3
2022-11-03T10:28:16.613Z,3.2
2022-11-03T10:29:16.690Z,4.1000000000000005
2022-11-03T10:30:16.725Z,5
2022-11-03T10:31:16.621Z,5.4
2022-11-03T10:32:16.620Z,5.6000000000000005
2022-11-03T10:33:16.624Z,5.1000000000000005
2022-11-03T10:34:16.619Z,3.6
2022-11-03T10:35:16.610Z,2.1
2022-11-03T10:36:16.609Z,0
2022-11-03T10:37:16.614Z,0
2022-11-03T10:38:16.618Z,0.4
2022-11-03T10:39:16.610Z,1.7000000000000002
2022-11-03T10:40:28.354Z,0
2022-11-03T10:41:16.627Z,0
2022-11-03T10:42:16.616Z,0
2022-11-03T10:43:16.626Z,0
2022-11-03T10:44:16.626Z,7
2022-11-03T10:45:16.628Z,8.5
2022-11-03T10:46:29.816Z,6.1000000000000005
2022-11-03T10:47:16.636Z,5.9
2022-11-03T10:48:16.620Z,6.9
2022-11-03T10:49:16.637Z,3
2022-11-03T10:50:16.692Z,0
2022-11-03T10:51:16.631Z,6.1000000000000005
2022-11-03T10:52:16.628Z,6.6000000000000005
2022-11-03T10:53:16.666Z,5.800000000000001
2022-11-03T10:54:16.638Z,2.2
2022-11-03T10:55:19.201Z,3.7
2022-11-03T10:56:16.651Z,0
2022-11-03T10:57:16.619Z,0
2022-11-03T10:58:16.631Z,0.5
2022-11-03T10:59:16.637Z,6.9
2022-11-03T11:00:16.757Z,5.2
2022-11-03T11:01:16.690Z,2.4000000000000004
2022-11-03T11:02:16.873Z,1.3
2022-11-03T11:03:19.647Z,2.5
2022-11-03T11:04:16.665Z,0
2022-11-03T11:05:16.634Z,0
2022-11-03T11:06:16.638Z,0
2022-11-03T11:07:16.635Z,0
2022-11-03T11:08:16.714Z,0
2022-11-03T11:09:16.645Z,0
2022-11-03T11:10:16.629Z,4.7
2022-11-03T11:11:16.646Z,5.800000000000001
2022-11-03T11:12:16.666Z,4.4
2022-11-03T11:13:16.635Z,4.6000000000000005
2022-11-03T11:14:16.622Z,5.4
2022-11-03T11:15:16.643Z,0
2022-11-03T11:16:16.634Z,0
2022-11-03T11:17:16.642Z,0
2022-11-03T11:18:16.684Z,4.6000000000000005
2022-11-03T11:19:16.652Z,4.6000000000000005
2022-11-03T11:20:16.642Z,2.5
2022-11-03T11:21:16.631Z,0
2022-11-03T11:22:16.640Z,0
2022-11-03T11:23:16.639Z,0
2022-11-03T11:24:16.642Z,0
2022-11-03T11:25:16.650Z,0
2022-11-03T11:26:16.633Z,0
2022-11-03T11:27:16.635Z,0
2022-11-03T11:28:16.666Z,0
2022-11-03T11:29:16.636Z,0
2022-11-03T11:30:16.643Z,0
2022-11-03T11:31:16.647Z,0
2022-11-03T11:32:16.647Z,0
2022-11-03T11:33:16.635Z,0
2022-11-03T11:34:16.637Z,0
2022-11-03T11:35:16.634Z,0
2022-11-03T11:36:16.632Z,0
2022-11-03T11:37:16.650Z,0
2022-11-03T11:38:16.642Z,0
2022-11-03T11:39:16.639Z,0
2022-11-03T11:40:16.639Z,1.7000000000000002
2022-11-03T11:41:16.644Z,1
2022-11-03T11:42:16.734Z,0
2022-11-03T11:43:16.637Z,0
2022-11-03T11:44:16.662Z,1.7000000000000002
2022-11-03T11:45:16.642Z,1.9000000000000001
2022-11-03T11:46:16.642Z,5.7
2022-11-03T11:47:16.635Z,4.800000000000001
2022-11-03T11:48:18.737Z,2.9000000000000004
2022-11-03T11:49:16.648Z,0.9
2022-11-03T11:50:16.645Z,0
2022-11-03T11:51:16.648Z,0
2022-11-03T11:52:19.074Z,1.1
2022-11-03T11:53:16.637Z,2.2
2022-11-03T11:54:17.777Z,3.2
2022-11-03T11:55:16.646Z,4.3
2022-11-03T11:56:16.655Z,4.7
2022-11-03T11:57:16.647Z,6.1000000000000005
2022-11-03T11:58:16.637Z,3.4000000000000004
2022-11-03T11:59:20.145Z,0
2022-11-03T12:00:16.666Z,2.7
2022-11-03T12:01:16.681Z,1.3
2022-11-03T12:02:16.648Z,5.7
2022-11-03T12:03:16.705Z,2.2
2022-11-03T12:05:16.648Z,0.4
2022-11-03T12:06:16.641Z,1.5
2022-11-03T12:07:16.653Z,2.4000000000000004
2022-11-03T12:08:16.643Z,1.6
2022-11-03T12:09:16.651Z,1.7000000000000002
2022-11-03T12:10:16.641Z,0
2022-11-03T12:11:16.682Z,0
2022-11-03T12:12:16.656Z,1.7000000000000002
2022-11-03T12:13:16.654Z,2
2022-11-03T12:14:16.643Z,0
2022-11-03T12:15:16.651Z,0
2022-11-03T12:16:16.672Z,0
2022-11-03T12:17:16.657Z,0
2022-11-03T12:18:16.653Z,0
2022-11-03T12:19:16.652Z,0
2022-11-03T12:20:16.659Z,0
2022-11-03T12:21:16.655Z,0
2022-11-03T12:22:16.664Z,0
2022-11-03T12:23:16.655Z,0
2022-11-03T12:24:16.663Z,0
2022-11-03T12:25:16.658Z,0
2022-11-03T12:26:16.663Z,0
2022-11-03T12:27:16.666Z,0
2022-11-03T12:28:16.666Z,0
2022-11-03T12:29:16.668Z,0
2022-11-03T12:30:16.671Z,0
2022-11-03T12:31:16.662Z,0
2022-11-03T12:32:25.466Z,0
2022-11-03T12:33:16.662Z,0
2022-11-03T12:34:16.665Z,0
2022-11-03T12:35:16.668Z,0
2022-11-03T12:36:16.673Z,0
2022-11-03T12:37:16.667Z,0
2022-11-03T12:38:16.672Z,0
2022-11-03T12:39:16.675Z,0
2022-11-03T12:40:16.676Z,0
2022-11-03T12:41:16.676Z,0
2022-11-03T12:42:16.674Z,0
2022-11-03T12:43:16.676Z,0
2022-11-03T12:44:16.883Z,0
2022-11-03T12:45:16.681Z,0
2022-11-03T12:46:16.682Z,0
2022-11-03T12:47:16.678Z,0
2022-11-03T12:48:16.698Z,0
2022-11-03T12:49:16.734Z,0
2022-11-03T12:50:16.698Z,0
2022-11-03T12:51:16.694Z,0
2022-11-03T12:52:16.680Z,0
2022-11-03T12:53:16.687Z,0
2022-11-03T12:54:16.685Z,0
2022-11-03T12:55:16.754Z,5.1000000000000005
2022-11-03T12:56:16.681Z,1.5
2022-11-03T12:57:16.691Z,0.8
2022-11-03T12:58:16.684Z,2.5
2022-11-03T12:59:16.691Z,3.2
2022-11-03T13:00:16.721Z,4.5
2022-11-03T13:01:16.902Z,4
2022-11-03T13:02:16.806Z,1
2022-11-03T13:03:16.701Z,1.5
2022-11-03T13:04:16.717Z,1.2000000000000002
2022-11-03T13:05:16.838Z,3.7
2022-11-03T13:06:16.693Z,3.1
2022-11-03T13:07:20.572Z,0
2022-11-03T13:09:16.703Z,0
2022-11-03T13:10:16.708Z,0
2022-11-03T13:11:16.702Z,0
2022-11-03T13:12:16.710Z,0
2022-11-03T13:13:16.695Z,0
2022-11-03T13:14:16.706Z,0
2022-11-03T13:15:16.704Z,0
2022-11-03T13:16:16.711Z,0
2022-11-03T13:17:16.707Z,0
2022-11-03T13:18:16.705Z,0
2022-11-03T13:19:16.714Z,0
2022-11-03T13:20:16.731Z,0
2022-11-03T13:21:16.723Z,0
2022-11-03T13:22:16.707Z,0
2022-11-03T13:23:18.715Z,0
2022-11-03T13:24:16.710Z,0
2022-11-03T13:25:16.749Z,0
2022-11-03T13:26:16.714Z,0
2022-11-03T13:27:16.714Z,0
2022-11-03T13:28:16.715Z,0
2022-11-03T13:29:16.719Z,0
2022-11-03T13:30:16.721Z,2.7
2022-11-03T13:31:16.715Z,0
2022-11-03T13:32:16.720Z,0
2022-11-03T13:33:16.706Z,0
2022-11-03T13:34:16.723Z,0
2022-11-03T13:35:16.723Z,0
2022-11-03T13:36:16.841Z,2
2022-11-03T13:37:16.719Z,0
2022-11-03T13:38:16.715Z,2.9000000000000004
2022-11-03T13:39:16.721Z,0
2022-11-03T13:40:42.999Z,0
2022-11-03T13:41:16.728Z,0
2022-11-03T13:42:16.727Z,0
2022-11-03T13:43:16.725Z,0
2022-11-03T13:44:16.725Z,0
2022-11-03T13:45:16.725Z,0
2022-11-03T13:46:16.729Z,0
2022-11-03T13:47:16.733Z,0
2022-11-03T13:49:52.439Z,0
2022-11-03T13:50:17.506Z,0
2022-11-03T13:51:16.843Z,0
2022-11-03T13:52:16.752Z,0
2022-11-03T13:56:21.090Z,0
2022-11-03T14:00:16.934Z,0
2022-11-03T14:01:16.906Z,0
2022-11-03T14:05:16.747Z,0
2022-11-03T14:06:16.752Z,0
2022-11-03T14:07:16.745Z,0
2022-11-03T14:08:16.769Z,0
2022-11-03T14:09:16.751Z,0
2022-11-03T14:10:16.752Z,0
2022-11-03T14:11:16.759Z,0
2022-11-03T14:12:16.739Z,0
2022-11-03T14:13:16.757Z,0
2022-11-03T14:14:16.751Z,0
2022-11-03T14:15:16.764Z,0
2022-11-03T14:16:16.791Z,0
2022-11-03T14:17:16.754Z,0
2022-11-03T14:18:16.751Z,0
2022-11-03T14:19:16.756Z,0
2022-11-03T14:20:16.802Z,0
2022-11-03T14:21:16.755Z,0
2022-11-03T14:22:16.755Z,0
2022-11-03T14:23:16.755Z,0